sensor_id;sensor_type;location;lat;lon;timestamp;pressure;altitude;pressure_sealevel;temperature;humidity
41306;BME280;27051;50.376;19.152;2022-07-17T00:01:13;98833.89;;;13.38;66.97
41306;BME280;27051;50.376;19.152;2022-07-17T00:03:40;98834.13;;;13.39;67.05
41306;BME280;27051;50.376;19.152;2022-07-17T00:06:07;98835.70;;;13.46;67.14
41306;BME280;27051;50.376;19.152;2022-07-17T00:08:33;98841.53;;;13.48;67.04
41306;BME280;27051;50.376;19.152;2022-07-17T00:11:00;98849.63;;;13.48;67.00
41306;BME280;27051;50.376;19.152;2022-07-17T00:13:27;98846.16;;;13.48;67.03
41306;BME280;27051;50.376;19.152;2022-07-17T00:15:54;98848.07;;;13.47;66.83
41306;BME280;27051;50.376;19.152;2022-07-17T00:18:20;98844.59;;;13.46;66.92
41306;BME280;27051;50.376;19.152;2022-07-17T00:20:48;98847.39;;;13.50;66.81
41306;BME280;27051;50.376;19.152;2022-07-17T00:23:15;98846.94;;;13.48;66.85
41306;BME280;27051;50.376;19.152;2022-07-17T00:25:41;98842.44;;;13.52;66.89
41306;BME280;27051;50.376;19.152;2022-07-17T00:28:08;98845.70;;;13.52;66.79
41306;BME280;27051;50.376;19.152;2022-07-17T00:30:35;98850.99;;;13.54;66.81
41306;BME280;27051;50.376;19.152;2022-07-17T00:33:02;98854.38;;;13.51;67.37
41306;BME280;27051;50.376;19.152;2022-07-17T00:35:29;98854.37;;;13.45;66.71
41306;BME280;27051;50.376;19.152;2022-07-17T00:37:56;98849.77;;;13.39;66.75
41306;BME280;27051;50.376;19.152;2022-07-17T00:40:24;98852.02;;;13.37;66.90
41306;BME280;27051;50.376;19.152;2022-07-17T00:42:52;98851.91;;;13.34;67.02
41306;BME280;27051;50.376;19.152;2022-07-17T00:45:19;98854.83;;;13.35;67.14
41306;BME280;27051;50.376;19.152;2022-07-17T00:47:55;98854.03;;;13.40;67.60
41306;BME280;27051;50.376;19.152;2022-07-17T00:50:29;98855.05;;;13.42;67.41
41306;BME280;27051;50.376;19.152;2022-07-17T00:53:00;98856.40;;;13.42;67.37
41306;BME280;27051;50.376;19.152;2022-07-17T00:55:29;98855.73;;;13.39;66.98
41306;BME280;27051;50.376;19.152;2022-07-17T00:58:00;98857.31;;;13.34;67.16
41306;BME280;27051;50.376;19.152;2022-07-17T01:00:27;98854.16;;;13.32;67.50
41306;BME280;27051;50.376;19.152;2022-07-17T01:02:55;98852.59;;;13.31;67.23
41306;BME280;27051;50.376;19.152;2022-07-17T01:05:23;98854.92;;;13.26;67.08
41306;BME280;27051;50.376;19.152;2022-07-17T01:07:51;98857.18;;;13.18;67.14
41306;BME280;27051;50.376;19.152;2022-07-17T01:10:19;98858.06;;;13.22;67.38
41306;BME280;27051;50.376;19.152;2022-07-17T01:12:46;98865.37;;;13.21;67.32
41306;BME280;27051;50.376;19.152;2022-07-17T01:15:15;98864.05;;;13.28;67.27
41306;BME280;27051;50.376;19.152;2022-07-17T01:17:42;98865.27;;;13.24;67.08
41306;BME280;27051;50.376;19.152;2022-07-17T01:20:11;98864.81;;;13.22;67.23
41306;BME280;27051;50.376;19.152;2022-07-17T01:22:50;98862.22;;;13.19;67.15
41306;BME280;27051;50.376;19.152;2022-07-17T01:25:20;98864.14;;;13.19;67.16
41306;BME280;27051;50.376;19.152;2022-07-17T01:27:48;98868.39;;;13.08;67.07
41306;BME280;27051;50.376;19.152;2022-07-17T01:30:15;98862.78;;;13.00;67.12
41306;BME280;27051;50.376;19.152;2022-07-17T01:32:43;98858.61;;;12.97;67.19
41306;BME280;27051;50.376;19.152;2022-07-17T01:35:12;98866.59;;;12.99;67.38
41306;BME280;27051;50.376;19.152;2022-07-17T01:37:41;98860.31;;;12.95;67.17
41306;BME280;27051;50.376;19.152;2022-07-17T01:40:11;98865.13;;;13.02;67.46
41306;BME280;27051;50.376;19.152;2022-07-17T01:42:42;98864.56;;;13.02;67.22
41306;BME280;27051;50.376;19.152;2022-07-17T01:45:10;98864.24;;;13.04;67.23
41306;BME280;27051;50.376;19.152;2022-07-17T01:47:38;98867.62;;;13.01;67.20
41306;BME280;27051;50.376;19.152;2022-07-17T01:50:07;98865.24;;;12.99;67.21
41306;BME280;27051;50.376;19.152;2022-07-17T01:52:37;98860.17;;;12.92;67.26
41306;BME280;27051;50.376;19.152;2022-07-17T01:55:07;98866.03;;;12.94;67.34
41306;BME280;27051;50.376;19.152;2022-07-17T01:57:35;98861.31;;;12.91;67.56
41306;BME280;27051;50.376;19.152;2022-07-17T02:00:05;98857.94;;;12.88;67.42
41306;BME280;27051;50.376;19.152;2022-07-17T02:02:34;98855.78;;;12.87;67.46
41306;BME280;27051;50.376;19.152;2022-07-17T02:05:02;98861.63;;;12.89;67.43
41306;BME280;27051;50.376;19.152;2022-07-17T02:07:30;98862.20;;;12.89;67.49
41306;BME280;27051;50.376;19.152;2022-07-17T02:09:56;98864.01;;;12.91;67.55
41306;BME280;27051;50.376;19.152;2022-07-17T02:12:23;98863.09;;;12.87;67.38
41306;BME280;27051;50.376;19.152;2022-07-17T02:14:50;98859.05;;;12.87;67.55
41306;BME280;27051;50.376;19.152;2022-07-17T02:17:17;98860.75;;;12.85;67.57
41306;BME280;27051;50.376;19.152;2022-07-17T02:19:43;98869.91;;;12.72;67.63
41306;BME280;27051;50.376;19.152;2022-07-17T02:22:10;98870.02;;;12.69;67.70
41306;BME280;27051;50.376;19.152;2022-07-17T02:24:37;98874.98;;;12.73;67.79
41306;BME280;27051;50.376;19.152;2022-07-17T02:27:04;98863.84;;;12.69;67.64
41306;BME280;27051;50.376;19.152;2022-07-17T02:29:32;98866.44;;;12.65;67.62
41306;BME280;27051;50.376;19.152;2022-07-17T02:31:58;98868.67;;;12.63;67.69
41306;BME280;27051;50.376;19.152;2022-07-17T02:34:25;98869.55;;;12.61;67.70
41306;BME280;27051;50.376;19.152;2022-07-17T02:36:52;98865.51;;;12.55;67.78
41306;BME280;27051;50.376;19.152;2022-07-17T02:39:19;98861.25;;;12.60;67.80
41306;BME280;27051;50.376;19.152;2022-07-17T02:41:46;98860.12;;;12.61;67.88
41306;BME280;27051;50.376;19.152;2022-07-17T02:44:12;98868.34;;;12.65;67.79
41306;BME280;27051;50.376;19.152;2022-07-17T02:46:39;98869.02;;;12.74;67.83
41306;BME280;27051;50.376;19.152;2022-07-17T02:49:05;98861.96;;;12.75;67.66
41306;BME280;27051;50.376;19.152;2022-07-17T02:51:32;98861.74;;;12.80;67.80
41306;BME280;27051;50.376;19.152;2022-07-17T02:53:59;98858.80;;;12.79;67.78
41306;BME280;27051;50.376;19.152;2022-07-17T02:56:27;98870.16;;;12.79;67.58
41306;BME280;27051;50.376;19.152;2022-07-17T02:58:54;98857.91;;;12.81;67.57
41306;BME280;27051;50.376;19.152;2022-07-17T03:01:20;98871.40;;;12.81;67.53
41306;BME280;27051;50.376;19.152;2022-07-17T03:03:47;98877.36;;;12.81;67.59
41306;BME280;27051;50.376;19.152;2022-07-17T03:06:13;98877.80;;;12.77;67.34
41306;BME280;27051;50.376;19.152;2022-07-17T03:08:40;98878.92;;;12.76;67.59
41306;BME280;27051;50.376;19.152;2022-07-17T03:11:07;98877.12;;;12.74;67.43
41306;BME280;27051;50.376;19.152;2022-07-17T03:13:34;98881.94;;;12.68;67.55
41306;BME280;27051;50.376;19.152;2022-07-17T03:16:00;98885.67;;;12.76;67.59
41306;BME280;27051;50.376;19.152;2022-07-17T03:18:27;98884.67;;;12.80;67.50
41306;BME280;27051;50.376;19.152;2022-07-17T03:20:53;98884.56;;;12.83;67.22
41306;BME280;27051;50.376;19.152;2022-07-17T03:23:20;98886.59;;;12.80;67.35
41306;BME280;27051;50.376;19.152;2022-07-17T03:25:47;98885.56;;;12.85;67.34
41306;BME280;27051;50.376;19.152;2022-07-17T03:28:13;98890.31;;;12.88;67.36
41306;BME280;27051;50.376;19.152;2022-07-17T03:30:40;98891.42;;;12.87;67.28
41306;BME280;27051;50.376;19.152;2022-07-17T03:33:06;98897.05;;;12.94;67.31
41306;BME280;27051;50.376;19.152;2022-07-17T03:35:33;98898.84;;;12.90;67.10
41306;BME280;27051;50.376;19.152;2022-07-17T03:38:00;98899.30;;;12.86;67.22
41306;BME280;27051;50.376;19.152;2022-07-17T03:40:26;98910.33;;;12.93;67.40
41306;BME280;27051;50.376;19.152;2022-07-17T03:42:53;98906.74;;;13.01;67.23
41306;BME280;27051;50.376;19.152;2022-07-17T03:45:19;98903.58;;;13.05;67.18
41306;BME280;27051;50.376;19.152;2022-07-17T03:47:46;98903.16;;;13.03;67.03
41306;BME280;27051;50.376;19.152;2022-07-17T03:50:13;98903.37;;;13.04;67.18
41306;BME280;27051;50.376;19.152;2022-07-17T03:52:39;98903.48;;;13.01;67.05
41306;BME280;27051;50.376;19.152;2022-07-17T03:55:08;98898.19;;;13.05;67.25
41306;BME280;27051;50.376;19.152;2022-07-17T03:57:35;98901.80;;;13.09;67.12
41306;BME280;27051;50.376;19.152;2022-07-17T04:00:03;98906.30;;;13.11;67.12
41306;BME280;27051;50.376;19.152;2022-07-17T04:02:31;98910.14;;;13.16;67.00
41306;BME280;27051;50.376;19.152;2022-07-17T04:04:58;98906.77;;;13.13;66.93
41306;BME280;27051;50.376;19.152;2022-07-17T04:07:25;98915.08;;;13.08;67.05
41306;BME280;27051;50.376;19.152;2022-07-17T04:09:58;98917.78;;;13.08;67.01
41306;BME280;27051;50.376;19.152;2022-07-17T04:12:22;98922.95;;;13.13;67.09
41306;BME280;27051;50.376;19.152;2022-07-17T04:14:49;98928.46;;;13.17;67.06
41306;BME280;27051;50.376;19.152;2022-07-17T04:17:16;98922.98;;;13.25;66.96
41306;BME280;27051;50.376;19.152;2022-07-17T04:19:43;98925.35;;;13.27;66.92
41306;BME280;27051;50.376;19.152;2022-07-17T04:22:10;98923.89;;;13.30;66.94
41306;BME280;27051;50.376;19.152;2022-07-17T04:24:37;98924.81;;;13.34;66.86
41306;BME280;27051;50.376;19.152;2022-07-17T04:27:04;98929.41;;;13.39;66.95
41306;BME280;27051;50.376;19.152;2022-07-17T04:29:31;98929.98;;;13.45;66.85
41306;BME280;27051;50.376;19.152;2022-07-17T04:31:58;98940.23;;;13.52;66.76
41306;BME280;27051;50.376;19.152;2022-07-17T04:34:25;98939.55;;;13.55;66.82
41306;BME280;27051;50.376;19.152;2022-07-17T04:36:52;98947.09;;;13.61;66.62
41306;BME280;27051;50.376;19.152;2022-07-17T04:39:19;98952.16;;;13.69;66.66
41306;BME280;27051;50.376;19.152;2022-07-17T04:41:45;98949.66;;;13.76;66.48
41306;BME280;27051;50.376;19.152;2022-07-17T04:44:12;98942.13;;;13.76;66.43
41306;BME280;27051;50.376;19.152;2022-07-17T04:46:39;98953.84;;;13.80;66.41
41306;BME280;27051;50.376;19.152;2022-07-17T04:49:05;98946.97;;;13.82;66.23
41306;BME280;27051;50.376;19.152;2022-07-17T04:51:32;98955.41;;;13.87;66.29
41306;BME280;27051;50.376;19.152;2022-07-17T04:53:59;98961.25;;;13.95;66.36
41306;BME280;27051;50.376;19.152;2022-07-17T04:56:26;98954.26;;;14.00;66.31
41306;BME280;27051;50.376;19.152;2022-07-17T04:58:52;98956.83;;;14.09;66.27
41306;BME280;27051;50.376;19.152;2022-07-17T05:01:19;98959.77;;;14.10;65.96
41306;BME280;27051;50.376;19.152;2022-07-17T05:03:45;98954.13;;;14.15;66.05
41306;BME280;27051;50.376;19.152;2022-07-17T05:06:13;98961.09;;;14.22;65.98
41306;BME280;27051;50.376;19.152;2022-07-17T05:08:39;98953.05;;;14.32;65.87
41306;BME280;27051;50.376;19.152;2022-07-17T05:11:07;98954.85;;;14.34;65.86
41306;BME280;27051;50.376;19.152;2022-07-17T05:13:34;98952.93;;;14.41;65.75
41306;BME280;27051;50.376;19.152;2022-07-17T05:16:01;98959.56;;;14.43;65.67
41306;BME280;27051;50.376;19.152;2022-07-17T05:18:27;98958.33;;;14.53;65.73
41306;BME280;27051;50.376;19.152;2022-07-17T05:20:54;98956.16;;;14.59;65.58
41306;BME280;27051;50.376;19.152;2022-07-17T05:23:20;98966.48;;;14.69;65.59
41306;BME280;27051;50.376;19.152;2022-07-17T05:25:47;98957.42;;;14.77;65.32
41306;BME280;27051;50.376;19.152;2022-07-17T05:28:14;98959.67;;;14.81;65.14
41306;BME280;27051;50.376;19.152;2022-07-17T05:30:40;98956.14;;;14.87;65.02
41306;BME280;27051;50.376;19.152;2022-07-17T05:33:07;98956.87;;;15.00;65.23
41306;BME280;27051;50.376;19.152;2022-07-17T05:35:33;98963.38;;;15.05;64.51
41306;BME280;27051;50.376;19.152;2022-07-17T05:38:00;98967.19;;;15.10;64.29
41306;BME280;27051;50.376;19.152;2022-07-17T05:40:27;98972.09;;;15.20;64.66
41306;BME280;27051;50.376;19.152;2022-07-17T05:42:54;98973.05;;;15.28;64.30
41306;BME280;27051;50.376;19.152;2022-07-17T05:45:21;98975.24;;;15.38;64.29
41306;BME280;27051;50.376;19.152;2022-07-17T05:47:47;98974.14;;;15.49;64.46
41306;BME280;27051;50.376;19.152;2022-07-17T05:50:14;98980.36;;;15.65;64.32
41306;BME280;27051;50.376;19.152;2022-07-17T05:52:41;98977.14;;;15.75;63.96
41306;BME280;27051;50.376;19.152;2022-07-17T05:55:08;98975.83;;;15.85;63.73
41306;BME280;27051;50.376;19.152;2022-07-17T05:57:35;98981.31;;;15.89;63.59
41306;BME280;27051;50.376;19.152;2022-07-17T06:00:03;98982.84;;;15.96;63.30
41306;BME280;27051;50.376;19.152;2022-07-17T06:02:31;98984.27;;;15.99;63.26
41306;BME280;27051;50.376;19.152;2022-07-17T06:04:57;98986.36;;;16.06;63.24
41306;BME280;27051;50.376;19.152;2022-07-17T06:07:24;98987.30;;;16.14;63.13
41306;BME280;27051;50.376;19.152;2022-07-17T06:09:51;98990.24;;;16.24;63.10
41306;BME280;27051;50.376;19.152;2022-07-17T06:12:17;98998.10;;;16.30;62.62
41306;BME280;27051;50.376;19.152;2022-07-17T06:14:44;98996.47;;;16.35;62.76
41306;BME280;27051;50.376;19.152;2022-07-17T06:17:11;98996.92;;;16.46;62.82
41306;BME280;27051;50.376;19.152;2022-07-17T06:19:37;99003.97;;;16.51;62.25
41306;BME280;27051;50.376;19.152;2022-07-17T06:22:04;99002.41;;;16.50;62.17
41306;BME280;27051;50.376;19.152;2022-07-17T06:24:30;99002.91;;;16.56;62.22
41306;BME280;27051;50.376;19.152;2022-07-17T06:26:57;99010.22;;;16.61;62.12
41306;BME280;27051;50.376;19.152;2022-07-17T06:29:24;99007.27;;;16.70;62.25
41306;BME280;27051;50.376;19.152;2022-07-17T06:31:51;99014.94;;;16.84;62.23
41306;BME280;27051;50.376;19.152;2022-07-17T06:34:17;99012.50;;;16.98;62.10
41306;BME280;27051;50.376;19.152;2022-07-17T06:36:44;99015.80;;;17.07;61.83
41306;BME280;27051;50.376;19.152;2022-07-17T06:39:10;99017.69;;;17.17;61.96
41306;BME280;27051;50.376;19.152;2022-07-17T06:41:37;99023.26;;;17.24;61.81
41306;BME280;27051;50.376;19.152;2022-07-17T06:44:03;99019.66;;;17.29;61.54
41306;BME280;27051;50.376;19.152;2022-07-17T06:46:30;99012.95;;;17.33;61.20
41306;BME280;27051;50.376;19.152;2022-07-17T06:48:57;99018.87;;;17.39;61.13
41306;BME280;27051;50.376;19.152;2022-07-17T06:51:23;99018.70;;;17.51;61.34
41306;BME280;27051;50.376;19.152;2022-07-17T06:53:50;99018.87;;;17.62;61.29
41306;BME280;27051;50.376;19.152;2022-07-17T06:56:16;99019.03;;;17.72;60.83
41306;BME280;27051;50.376;19.152;2022-07-17T06:58:43;99020.86;;;17.78;60.60
41306;BME280;27051;50.376;19.152;2022-07-17T07:01:10;99016.42;;;17.89;60.71
41306;BME280;27051;50.376;19.152;2022-07-17T07:03:37;99015.42;;;18.01;60.67
41306;BME280;27051;50.376;19.152;2022-07-17T07:06:03;99012.45;;;18.10;60.35
41306;BME280;27051;50.376;19.152;2022-07-17T07:08:30;99012.41;;;18.19;60.37
41306;BME280;27051;50.376;19.152;2022-07-17T07:11:01;99018.31;;;18.25;60.08
41306;BME280;27051;50.376;19.152;2022-07-17T07:13:28;99013.00;;;18.36;59.95
41306;BME280;27051;50.376;19.152;2022-07-17T07:15:55;99017.97;;;18.43;58.96
41306;BME280;27051;50.376;19.152;2022-07-17T07:18:22;99017.87;;;18.50;59.64
41306;BME280;27051;50.376;19.152;2022-07-17T07:20:49;99016.89;;;18.65;59.90
41306;BME280;27051;50.376;19.152;2022-07-17T07:23:16;99016.66;;;18.77;59.21
41306;BME280;27051;50.376;19.152;2022-07-17T07:25:42;99022.25;;;18.88;59.09
41306;BME280;27051;50.376;19.152;2022-07-17T07:28:09;99020.95;;;18.95;59.02
41306;BME280;27051;50.376;19.152;2022-07-17T07:30:36;99018.72;;;19.04;58.62
41306;BME280;27051;50.376;19.152;2022-07-17T07:33:03;99018.83;;;19.15;58.51
41306;BME280;27051;50.376;19.152;2022-07-17T07:35:30;99021.99;;;19.21;58.09
41306;BME280;27051;50.376;19.152;2022-07-17T07:37:56;99022.66;;;19.27;58.03
41306;BME280;27051;50.376;19.152;2022-07-17T07:40:23;99031.10;;;19.36;57.63
41306;BME280;27051;50.376;19.152;2022-07-17T07:42:50;99031.00;;;19.45;57.69
41306;BME280;27051;50.376;19.152;2022-07-17T07:45:17;99035.18;;;19.56;57.25
41306;BME280;27051;50.376;19.152;2022-07-17T07:47:46;99043.02;;;19.61;57.09
41306;BME280;27051;50.376;19.152;2022-07-17T07:50:14;99040.70;;;19.63;56.73
41306;BME280;27051;50.376;19.152;2022-07-17T07:52:41;99046.06;;;19.69;56.90
41306;BME280;27051;50.376;19.152;2022-07-17T07:55:10;99047.47;;;19.77;56.33
41306;BME280;27051;50.376;19.152;2022-07-17T07:57:38;99053.94;;;19.82;55.40
41306;BME280;27051;50.376;19.152;2022-07-17T08:00:08;99048.30;;;19.84;56.43
41306;BME280;27051;50.376;19.152;2022-07-17T08:02:38;99057.55;;;19.93;55.67
41306;BME280;27051;50.376;19.152;2022-07-17T08:05:06;99055.44;;;20.00;55.97
41306;BME280;27051;50.376;19.152;2022-07-17T08:07:36;99055.13;;;20.08;55.73
41306;BME280;27051;50.376;19.152;2022-07-17T08:10:04;99052.64;;;20.16;54.97
41306;BME280;27051;50.376;19.152;2022-07-17T08:12:32;99063.63;;;20.27;55.54
41306;BME280;27051;50.376;19.152;2022-07-17T08:14:59;99058.86;;;20.45;55.42
41306;BME280;27051;50.376;19.152;2022-07-17T08:17:25;99063.67;;;20.62;54.87
41306;BME280;27051;50.376;19.152;2022-07-17T08:19:52;99062.97;;;20.79;54.53
41306;BME280;27051;50.376;19.152;2022-07-17T08:22:18;99059.53;;;20.97;54.05
41306;BME280;27051;50.376;19.152;2022-07-17T08:24:45;99059.75;;;21.09;53.01
41306;BME280;27051;50.376;19.152;2022-07-17T08:27:12;99052.38;;;21.20;53.44
41306;BME280;27051;50.376;19.152;2022-07-17T08:29:38;99055.53;;;21.33;53.19
41306;BME280;27051;50.376;19.152;2022-07-17T08:32:06;99055.95;;;21.42;52.81
41306;BME280;27051;50.376;19.152;2022-07-17T08:34:32;99055.58;;;21.54;52.81
41306;BME280;27051;50.376;19.152;2022-07-17T08:36:59;99057.34;;;21.60;51.91
41306;BME280;27051;50.376;19.152;2022-07-17T08:39:26;99063.81;;;21.68;50.79
41306;BME280;27051;50.376;19.152;2022-07-17T08:41:53;99062.05;;;21.74;50.23
41306;BME280;27051;50.376;19.152;2022-07-17T08:44:20;99068.69;;;21.73;50.46
41306;BME280;27051;50.376;19.152;2022-07-17T08:46:48;99060.30;;;21.68;50.60
41306;BME280;27051;50.376;19.152;2022-07-17T08:49:20;99069.67;;;21.85;50.03
41306;BME280;27051;50.376;19.152;2022-07-17T08:51:47;99071.82;;;22.00;50.33
41306;BME280;27051;50.376;19.152;2022-07-17T08:54:14;99078.09;;;21.97;48.60
41306;BME280;27051;50.376;19.152;2022-07-17T08:56:41;99068.69;;;22.05;49.72
41306;BME280;27051;50.376;19.152;2022-07-17T08:59:09;99068.72;;;22.19;49.12
41306;BME280;27051;50.376;19.152;2022-07-17T09:01:36;99076.14;;;22.22;48.01
41306;BME280;27051;50.376;19.152;2022-07-17T09:04:04;99071.42;;;22.37;48.56
41306;BME280;27051;50.376;19.152;2022-07-17T09:06:33;99072.18;;;22.52;48.35
41306;BME280;27051;50.376;19.152;2022-07-17T09:09:09;99067.66;;;22.57;48.09
41306;BME280;27051;50.376;19.152;2022-07-17T09:11:43;99071.78;;;22.46;46.84
41306;BME280;27051;50.376;19.152;2022-07-17T09:14:12;99084.34;;;22.29;46.38
41306;BME280;27051;50.376;19.152;2022-07-17T09:16:54;99080.22;;;22.40;47.20
41306;BME280;27051;50.376;19.152;2022-07-17T09:19:26;99077.74;;;22.82;47.06
41306;BME280;27051;50.376;19.152;2022-07-17T09:22:06;99076.95;;;23.32;46.25
41306;BME280;27051;50.376;19.152;2022-07-17T09:24:43;99079.31;;;23.64;45.96
41306;BME280;27051;50.376;19.152;2022-07-17T09:27:09;99083.16;;;23.77;45.12
41306;BME280;27051;50.376;19.152;2022-07-17T09:32:23;99095.20;;;23.31;43.65
41306;BME280;27051;50.376;19.152;2022-07-17T09:34:53;99089.20;;;23.10;44.11
41306;BME280;27051;50.376;19.152;2022-07-17T09:37:25;99090.38;;;23.49;44.44
41306;BME280;27051;50.376;19.152;2022-07-17T09:39:53;99088.03;;;24.26;44.85
41306;BME280;27051;50.376;19.152;2022-07-17T09:42:25;99100.37;;;24.71;43.44
41306;BME280;27051;50.376;19.152;2022-07-17T09:45:06;99088.39;;;25.04;43.25
41306;BME280;27051;50.376;19.152;2022-07-17T09:47:34;99089.36;;;25.63;42.31
41306;BME280;27051;50.376;19.152;2022-07-17T09:50:05;99089.78;;;26.36;42.47
41306;BME280;27051;50.376;19.152;2022-07-17T09:52:35;99092.98;;;26.94;40.70
41306;BME280;27051;50.376;19.152;2022-07-17T09:55:05;99098.48;;;27.14;40.35
41306;BME280;27051;50.376;19.152;2022-07-17T09:57:33;99090.95;;;26.78;39.70
41306;BME280;27051;50.376;19.152;2022-07-17T10:00:04;99084.38;;;26.52;40.20
41306;BME280;27051;50.376;19.152;2022-07-17T10:02:33;99082.40;;;26.73;37.84
41306;BME280;27051;50.376;19.152;2022-07-17T10:05:00;99077.38;;;27.16;38.43
41306;BME280;27051;50.376;19.152;2022-07-17T10:07:28;99087.16;;;27.00;38.69
41306;BME280;27051;50.376;19.152;2022-07-17T10:09:55;99086.58;;;27.09;38.49
41306;BME280;27051;50.376;19.152;2022-07-17T10:12:24;99081.00;;;27.41;38.01
41306;BME280;27051;50.376;19.152;2022-07-17T10:14:52;99074.55;;;28.13;38.02
41306;BME280;27051;50.376;19.152;2022-07-17T10:17:20;99076.70;;;28.80;36.94
41306;BME280;27051;50.376;19.152;2022-07-17T10:19:53;99073.66;;;28.91;36.12
41306;BME280;27051;50.376;19.152;2022-07-17T10:22:21;99079.05;;;28.82;34.92
41306;BME280;27051;50.376;19.152;2022-07-17T10:24:51;99082.55;;;28.24;35.34
41306;BME280;27051;50.376;19.152;2022-07-17T10:27:29;99079.73;;;28.11;35.68
41306;BME280;27051;50.376;19.152;2022-07-17T10:30:09;99081.42;;;28.46;35.52
41306;BME280;27051;50.376;19.152;2022-07-17T10:32:38;99077.92;;;29.08;35.51
41306;BME280;27051;50.376;19.152;2022-07-17T10:35:10;99079.73;;;29.07;33.01
41306;BME280;27051;50.376;19.152;2022-07-17T10:37:40;99082.51;;;28.77;33.83
41306;BME280;27051;50.376;19.152;2022-07-17T10:43:05;99084.59;;;29.75;33.59
41306;BME280;27051;50.376;19.152;2022-07-17T10:48:21;99080.18;;;30.64;31.34
41306;BME280;27051;50.376;19.152;2022-07-17T10:50:54;99089.94;;;29.86;29.77
41306;BME280;27051;50.376;19.152;2022-07-17T10:56:05;99088.61;;;28.19;31.53
41306;BME280;27051;50.376;19.152;2022-07-17T10:58:42;99093.80;;;28.62;31.34
41306;BME280;27051;50.376;19.152;2022-07-17T11:01:22;99079.48;;;29.48;31.07
41306;BME280;27051;50.376;19.152;2022-07-17T11:03:53;99085.97;;;29.62;30.96
41306;BME280;27051;50.376;19.152;2022-07-17T11:06:30;99096.48;;;29.16;30.75
41306;BME280;27051;50.376;19.152;2022-07-17T11:14:19;99080.15;;;29.64;29.93
41306;BME280;27051;50.376;19.152;2022-07-17T11:16:57;99070.74;;;30.40;29.79
41306;BME280;27051;50.376;19.152;2022-07-17T11:19:34;99077.14;;;30.93;28.97
41306;BME280;27051;50.376;19.152;2022-07-17T11:22:08;99074.59;;;31.35;28.98
41306;BME280;27051;50.376;19.152;2022-07-17T11:27:12;99072.05;;;32.64;27.83
41306;BME280;27051;50.376;19.152;2022-07-17T11:29:49;99066.44;;;33.05;27.11
41306;BME280;27051;50.376;19.152;2022-07-17T11:32:18;99073.77;;;33.32;26.47
41306;BME280;27051;50.376;19.152;2022-07-17T11:34:46;99078.97;;;32.87;26.19
41306;BME280;27051;50.376;19.152;2022-07-17T11:37:13;99075.17;;;33.27;26.32
41306;BME280;27051;50.376;19.152;2022-07-17T11:39:48;99064.60;;;33.98;26.02
41306;BME280;27051;50.376;19.152;2022-07-17T11:42:19;99067.45;;;34.71;24.98
41306;BME280;27051;50.376;19.152;2022-07-17T11:44:49;99066.00;;;35.20;23.96
41306;BME280;27051;50.376;19.152;2022-07-17T11:47:22;99063.33;;;35.71;24.33
41306;BME280;27051;50.376;19.152;2022-07-17T11:50:02;99067.92;;;36.46;23.45
41306;BME280;27051;50.376;19.152;2022-07-17T11:52:45;99065.42;;;37.16;23.07
41306;BME280;27051;50.376;19.152;2022-07-17T11:55:13;99055.92;;;37.45;23.05
41306;BME280;27051;50.376;19.152;2022-07-17T11:57:46;99059.91;;;37.11;22.92
41306;BME280;27051;50.376;19.152;2022-07-17T12:00:17;99055.61;;;36.58;22.88
41306;BME280;27051;50.376;19.152;2022-07-17T12:02:45;99054.45;;;36.70;23.26
41306;BME280;27051;50.376;19.152;2022-07-17T12:05:12;99060.64;;;37.44;22.71
41306;BME280;27051;50.376;19.152;2022-07-17T12:07:45;99054.34;;;37.97;21.84
41306;BME280;27051;50.376;19.152;2022-07-17T12:10:18;99057.73;;;38.74;21.32
41306;BME280;27051;50.376;19.152;2022-07-17T12:15:44;99059.52;;;39.90;20.04
41306;BME280;27051;50.376;19.152;2022-07-17T12:18:25;99056.14;;;40.50;19.58
41306;BME280;27051;50.376;19.152;2022-07-17T12:21:02;99053.68;;;41.07;19.10
41306;BME280;27051;50.376;19.152;2022-07-17T12:38:42;99029.66;;;44.01;16.75
41306;BME280;27051;50.376;19.152;2022-07-17T12:41:08;99029.92;;;44.58;16.75
41306;BME280;27051;50.376;19.152;2022-07-17T12:43:34;99025.08;;;44.88;15.91
41306;BME280;27051;50.376;19.152;2022-07-17T12:46:00;99026.58;;;45.10;15.50
41306;BME280;27051;50.376;19.152;2022-07-17T12:48:25;99025.00;;;45.15;14.71
41306;BME280;27051;50.376;19.152;2022-07-17T12:50:51;99026.09;;;45.33;14.31
41306;BME280;27051;50.376;19.152;2022-07-17T12:53:17;99021.98;;;44.50;13.83
41306;BME280;27051;50.376;19.152;2022-07-17T12:55:43;99017.30;;;42.79;14.84
41306;BME280;27051;50.376;19.152;2022-07-17T12:58:09;99020.56;;;42.50;14.75
41306;BME280;27051;50.376;19.152;2022-07-17T13:00:35;99019.47;;;43.18;14.18
41306;BME280;27051;50.376;19.152;2022-07-17T13:03:03;99020.00;;;42.45;14.79
41306;BME280;27051;50.376;19.152;2022-07-17T13:05:29;99019.34;;;42.39;14.76
41306;BME280;27051;50.376;19.152;2022-07-17T13:07:55;99029.41;;;41.66;14.96
41306;BME280;27051;50.376;19.152;2022-07-17T13:10:21;99025.13;;;40.56;15.52
41306;BME280;27051;50.376;19.152;2022-07-17T13:12:47;99029.99;;;39.44;15.22
41306;BME280;27051;50.376;19.152;2022-07-17T13:15:13;99016.23;;;39.99;15.38
41306;BME280;27051;50.376;19.152;2022-07-17T13:17:39;99014.67;;;39.69;15.48
41306;BME280;27051;50.376;19.152;2022-07-17T13:20:06;99020.58;;;38.13;15.67
41306;BME280;27051;50.376;19.152;2022-07-17T13:22:33;99018.70;;;37.93;16.24
41306;BME280;27051;50.376;19.152;2022-07-17T13:24:59;99010.98;;;38.76;15.75
41306;BME280;27051;50.376;19.152;2022-07-17T13:27:24;99017.48;;;39.69;16.02
41306;BME280;27051;50.376;19.152;2022-07-17T13:29:50;99022.77;;;40.24;15.99
41306;BME280;27051;50.376;19.152;2022-07-17T13:32:16;99022.55;;;40.76;15.19